Time;durP1;ratioP1;P1;durP2;ratioP2;P2;SDS_P1;SDS_P2;PMS_P1;PMS_P2;Temp;Humidity;BMP_temperature;BMP_pressure;BME280_temperature;BME280_humidity;BME280_pressure;Samples;Min_cycle;Max_cycle;Signal;HPM_P1;HPM_P2
2022/11/21 00:00:44;;;;;;;3.20;0.85;;;;;;;4.10;100.00;96507.59;5045863;28;20124;-61
2022/11/21 00:03:11;;;;;;;2.08;0.63;;;;;;;3.98;100.00;96497.66;5044614;28;20140;-61
2022/11/21 00:05:42;;;;;;;3.15;0.68;;;;;;;3.88;100.00;96490.19;5044531;28;20072;-61
2022/11/21 00:08:11;;;;;;;1.85;0.52;;;;;;;3.83;100.00;96489.28;5045401;28;20443;-61
2022/11/21 00:10:38;;;;;;;0.60;0.40;;;;;;;3.83;100.00;96482.03;5045313;28;20120;-61
2022/11/21 00:13:06;;;;;;;2.97;0.40;;;;;;;3.80;100.00;96485.19;5048422;28;20060;-61
2022/11/21 00:15:34;;;;;;;1.80;0.43;;;;;;;3.79;100.00;96496.13;5060131;28;20224;-61
2022/11/21 00:18:02;;;;;;;0.57;0.35;;;;;;;3.82;100.00;96491.13;5041811;28;20052;-62
2022/11/21 00:20:30;;;;;;;4.43;1.30;;;;;;;3.82;100.00;96485.78;5042015;28;20147;-61
2022/11/21 00:22:56;;;;;;;2.38;0.40;;;;;;;3.83;100.00;96476.69;5032635;28;20042;-62
2022/11/21 00:25:23;;;;;;;2.50;0.57;;;;;;;3.82;100.00;96483.09;5035775;28;20095;-62
2022/11/21 00:27:51;;;;;;;1.33;0.43;;;;;;;3.85;100.00;96485.31;5045165;28;21245;-61
2022/11/21 00:30:18;;;;;;;1.48;0.70;;;;;;;3.90;100.00;96474.72;5045675;28;20049;-61
2022/11/21 00:32:44;;;;;;;1.05;0.40;;;;;;;3.88;100.00;96471.44;5044729;28;20037;-61
2022/11/21 00:35:11;;;;;;;1.67;0.40;;;;;;;3.71;100.00;96468.63;5046339;28;20120;-61
2022/11/21 00:37:38;;;;;;;0.88;0.35;;;;;;;3.62;100.00;96468.16;5044241;28;20083;-61
2022/11/21 00:40:05;;;;;;;1.65;0.38;;;;;;;3.56;100.00;96461.03;5029127;28;20113;-61
2022/11/21 00:42:32;;;;;;;0.75;0.35;;;;;;;3.29;100.00;96442.72;5036964;28;20056;-61
2022/11/21 00:44:58;;;;;;;1.70;0.50;;;;;;;3.33;100.00;96445.75;5039124;28;20104;-61
2022/11/21 00:47:25;;;;;;;1.58;0.60;;;;;;;3.41;100.00;96448.09;5040779;28;20060;-61
2022/11/21 00:49:51;;;;;;;2.60;0.90;;;;;;;3.49;100.00;96447.75;5039523;28;20041;-61
2022/11/21 00:52:18;;;;;;;3.20;0.70;;;;;;;3.57;100.00;96459.19;5044740;28;20443;-61
2022/11/21 00:54:44;;;;;;;0.43;0.35;;;;;;;3.58;100.00;96447.44;5045141;28;20135;-61
2022/11/21 00:57:11;;;;;;;4.65;0.60;;;;;;;3.63;100.00;96447.56;5042890;28;20072;-61
2022/11/21 00:59:37;;;;;;;1.70;0.50;;;;;;;3.71;100.00;96455.25;5025629;28;20055;-61
2022/11/21 01:02:04;;;;;;;1.55;0.40;;;;;;;3.77;100.00;96458.88;5042446;28;20049;-61
2022/11/21 01:04:32;;;;;;;1.42;0.50;;;;;;;3.70;100.00;96456.31;5045610;28;20481;-61
2022/11/21 01:06:59;;;;;;;3.17;0.65;;;;;;;3.62;100.00;96444.06;5044576;28;20071;-61
2022/11/21 01:09:27;;;;;;;2.03;0.63;;;;;;;3.76;100.00;96441.97;5026351;28;20041;-61
2022/11/21 01:11:54;;;;;;;3.55;0.57;;;;;;;3.79;100.00;96455.97;5041794;28;20527;-61
2022/11/21 01:14:21;;;;;;;1.35;0.47;;;;;;;3.71;100.00;96457.94;5035101;28;20034;-62
2022/11/21 01:16:47;;;;;;;3.03;0.60;;;;;;;3.58;100.00;96450.13;5041018;28;20111;-61
2022/11/21 01:19:14;;;;;;;2.55;0.80;;;;;;;3.44;100.00;96455.69;5041384;28;20048;-61
2022/11/21 01:21:40;;;;;;;2.85;0.60;;;;;;;3.55;100.00;96453.25;5044942;28;20140;-61
2022/11/21 01:24:10;;;;;;;4.68;0.73;;;;;;;3.60;100.00;96456.88;5038172;28;20061;-61
2022/11/21 01:26:36;;;;;;;4.38;0.85;;;;;;;3.47;100.00;96451.72;5038784;28;20070;-61
2022/11/21 01:29:04;;;;;;;4.15;0.80;;;;;;;3.60;100.00;96458.72;5048031;28;20052;-61
2022/11/21 01:31:31;;;;;;;4.63;1.33;;;;;;;3.51;100.00;96453.69;5049121;28;20096;-61
2022/11/21 01:33:59;;;;;;;2.40;0.68;;;;;;;3.54;100.00;96448.94;5041303;28;20131;-61
2022/11/21 01:36:32;;;;;;;3.08;0.75;;;;;;;3.39;100.00;96455.50;5048977;28;20076;-61
2022/11/21 01:39:02;;;;;;;4.20;0.95;;;;;;;3.24;100.00;96443.38;5048636;28;20067;-61
2022/11/21 01:41:40;;;;;;;2.08;0.85;;;;;;;3.17;100.00;96439.19;5048721;28;20124;-61
2022/11/21 01:44:25;;;;;;;2.47;0.80;;;;;;;3.10;100.00;96434.72;5047342;28;20211;-61
2022/11/21 01:46:52;;;;;;;1.00;0.60;;;;;;;2.99;100.00;96433.63;5049172;28;20060;-61
2022/11/21 01:49:25;;;;;;;2.08;0.60;;;;;;;3.10;100.00;96433.94;5044075;28;20056;-61
2022/11/21 01:52:02;;;;;;;1.75;0.50;;;;;;;3.09;100.00;96437.63;5048350;28;20514;-61
2022/11/21 01:54:35;;;;;;;1.40;0.55;;;;;;;3.04;100.00;96438.31;5040585;28;20033;-61
2022/11/21 01:57:11;;;;;;;2.63;0.60;;;;;;;3.10;100.00;96437.41;5043800;28;20075;-61
2022/11/21 01:59:46;;;;;;;1.38;0.50;;;;;;;3.12;100.00;96439.84;5048345;28;20040;-61
2022/11/21 02:02:19;;;;;;;2.10;0.47;;;;;;;3.13;100.00;96441.47;5032069;28;20045;-61
2022/11/21 02:04:47;;;;;;;3.35;0.55;;;;;;;3.02;100.00;96440.38;5026700;28;20041;-61
2022/11/21 02:07:16;;;;;;;3.47;0.60;;;;;;;2.97;100.00;96434.91;5044153;28;20540;-61
2022/11/21 02:09:48;;;;;;;2.70;0.50;;;;;;;2.99;100.00;96433.63;5047942;28;20493;-61
2022/11/21 02:12:21;;;;;;;0.85;0.30;;;;;;;3.00;100.00;96442.50;5047242;28;20118;-61
2022/11/21 02:14:48;;;;;;;0.85;0.40;;;;;;;2.97;100.00;96432.25;5049258;28;20065;-61
2022/11/21 02:17:17;;;;;;;1.13;0.50;;;;;;;2.91;100.00;96433.94;5048429;28;20049;-61
2022/11/21 02:19:52;;;;;;;1.00;0.45;;;;;;;2.88;100.00;96430.94;5047892;28;20063;-61
2022/11/21 02:22:26;;;;;;;0.38;0.30;;;;;;;2.99;100.00;96427.50;5047573;28;20049;-61
2022/11/21 02:25:10;;;;;;;0.60;0.38;;;;;;;3.00;100.00;96429.13;5046796;28;20045;-61
2022/11/21 02:27:37;;;;;;;1.20;0.35;;;;;;;3.07;100.00;96427.19;5048214;28;20041;-61
2022/11/21 02:30:06;;;;;;;1.63;0.40;;;;;;;3.11;100.00;96419.50;5047052;28;20555;-61
2022/11/21 02:32:39;;;;;;;1.08;0.50;;;;;;;2.76;100.00;96404.16;5046970;28;20397;-61
2022/11/21 02:35:07;;;;;;;2.53;0.80;;;;;;;2.77;100.00;96411.94;5044349;28;20041;-61
2022/11/21 02:37:36;;;;;;;1.23;0.47;;;;;;;2.82;100.00;96412.06;5046933;28;20370;-61
2022/11/21 02:40:08;;;;;;;0.50;0.40;;;;;;;2.64;100.00;96406.75;5038100;28;20424;-61
2022/11/21 02:42:50;;;;;;;1.30;0.40;;;;;;;2.49;100.00;96407.97;5043805;28;20045;-61
2022/11/21 02:45:38;;;;;;;1.02;0.63;;;;;;;2.44;100.00;96397.94;5029420;28;20432;-61
2022/11/21 02:48:04;;;;;;;0.30;0.30;;;;;;;2.48;100.00;96403.66;5036516;28;20045;-60
2022/11/21 02:50:34;;;;;;;0.95;0.32;;;;;;;2.46;100.00;96398.53;5047360;28;20516;-61
2022/11/21 02:53:01;;;;;;;0.95;0.45;;;;;;;2.44;100.00;96400.59;5028458;28;20045;-61
2022/11/21 02:55:28;;;;;;;0.65;0.35;;;;;;;2.41;100.00;96394.91;5046017;28;20049;-61
2022/11/21 02:57:55;;;;;;;0.57;0.30;;;;;;;2.43;100.00;96396.31;5047627;28;20045;-61
2022/11/21 03:00:27;;;;;;;1.58;0.50;;;;;;;2.57;100.00;96394.28;5045934;28;20048;-61
2022/11/21 03:02:54;;;;;;;0.28;0.20;;;;;;;2.45;100.00;96380.03;5043675;28;20393;-61
2022/11/21 03:05:21;;;;;;;1.58;0.30;;;;;;;2.36;100.00;96376.84;5026999;28;20044;-61
2022/11/21 03:07:48;;;;;;;0.38;0.30;;;;;;;2.34;100.00;96379.78;5044308;28;20045;-61
2022/11/21 03:10:15;;;;;;;0.40;0.30;;;;;;;2.32;100.00;96378.38;5046543;28;20045;-61
2022/11/21 03:12:42;;;;;;;0.30;0.30;;;;;;;2.38;100.00;96374.78;5045610;28;20040;-61
2022/11/21 03:15:14;;;;;;;0.35;0.20;;;;;;;2.50;100.00;96372.16;5042162;28;20099;-61
2022/11/21 03:17:41;;;;;;;0.68;0.30;;;;;;;2.53;100.00;96373.56;5043237;28;20712;-61
2022/11/21 03:20:09;;;;;;;0.85;0.40;;;;;;;2.53;100.00;96371.72;5047158;28;20346;-61
2022/11/21 03:22:36;;;;;;;0.52;0.40;;;;;;;2.50;100.00;96374.03;5044376;28;20049;-61
2022/11/21 03:25:02;;;;;;;0.43;0.28;;;;;;;2.63;100.00;96359.69;5045644;28;20586;-61
2022/11/21 03:27:29;;;;;;;0.45;0.30;;;;;;;2.64;100.00;96361.31;5046574;28;20052;-61
2022/11/21 03:29:55;;;;;;;0.52;0.30;;;;;;;2.69;100.00;96364.94;5032169;28;20045;-61
2022/11/21 03:32:22;;;;;;;1.80;0.30;;;;;;;2.69;100.00;96362.25;5037257;28;20037;-61
2022/11/21 03:34:48;;;;;;;0.73;0.30;;;;;;;2.68;100.00;96360.63;5028080;28;20500;-61
2022/11/21 03:37:15;;;;;;;1.70;0.40;;;;;;;2.72;100.00;96367.16;5038031;28;20078;-62
2022/11/21 03:39:42;;;;;;;1.27;0.30;;;;;;;2.75;100.00;96368.56;5044157;28;20045;-61
2022/11/21 03:42:09;;;;;;;1.38;0.32;;;;;;;2.90;100.00;96367.31;5045190;28;20194;-61
2022/11/21 03:44:35;;;;;;;1.48;0.50;;;;;;;2.84;100.00;96363.72;5046254;28;20187;-61
2022/11/21 03:47:02;;;;;;;0.88;0.45;;;;;;;2.77;100.00;96361.16;5046039;28;20501;-61
2022/11/21 03:49:28;;;;;;;0.65;0.35;;;;;;;2.78;100.00;96361.94;5045192;28;20519;-61
2022/11/21 03:51:55;;;;;;;1.95;0.50;;;;;;;2.78;100.00;96354.75;5046055;28;20045;-61
2022/11/21 03:54:21;;;;;;;0.95;0.40;;;;;;;2.85;100.00;96358.13;5045449;28;20041;-61
2022/11/21 03:56:48;;;;;;;1.55;0.60;;;;;;;2.95;100.00;96359.47;5046217;28;20071;-61
2022/11/21 03:59:15;;;;;;;1.65;0.70;;;;;;;3.11;100.00;96363.34;5045104;28;20049;-61
2022/11/21 04:01:41;;;;;;;5.18;0.77;;;;;;;3.30;100.00;96345.34;5039904;28;20527;-61
2022/11/21 04:04:08;;;;;;;2.67;0.85;;;;;;;3.47;100.00;96355.38;5034055;28;20042;-61
2022/11/21 04:06:35;;;;;;;2.40;0.68;;;;;;;3.54;100.00;96349.91;5030177;28;20049;-61
2022/11/21 04:09:01;;;;;;;2.42;1.00;;;;;;;3.46;100.00;96353.75;5045322;28;20146;-61
2022/11/21 04:11:28;;;;;;;3.20;0.77;;;;;;;3.58;100.00;96359.09;5045342;28;20053;-61
2022/11/21 04:13:54;;;;;;;4.07;0.80;;;;;;;3.63;100.00;96368.06;5054895;28;20507;-61
2022/11/21 04:16:21;;;;;;;3.17;0.77;;;;;;;3.73;100.00;96364.78;5065761;28;20040;-61
2022/11/21 04:18:47;;;;;;;1.73;0.60;;;;;;;3.73;100.00;96359.44;5053180;28;20045;-61
2022/11/21 04:21:14;;;;;;;1.33;0.52;;;;;;;3.77;100.00;96368.63;5045887;28;20426;-61
2022/11/21 04:23:40;;;;;;;1.15;0.60;;;;;;;3.85;100.00;96356.78;5044698;28;20044;-61
2022/11/21 04:26:07;;;;;;;1.63;0.50;;;;;;;3.85;100.00;96355.94;5046151;28;20037;-61
2022/11/21 04:28:33;;;;;;;2.50;1.00;;;;;;;3.86;100.00;96360.25;5044680;28;20052;-61
2022/11/21 04:31:07;;;;;;;1.70;0.50;;;;;;;3.87;100.00;96359.22;5030611;28;20456;-61
2022/11/21 04:33:37;;;;;;;1.10;0.52;;;;;;;3.85;100.00;96356.78;5037484;28;20055;-61
2022/11/21 04:36:08;;;;;;;3.22;0.60;;;;;;;3.89;100.00;96363.28;5025210;28;20052;-61
2022/11/21 04:38:35;;;;;;;3.28;0.82;;;;;;;3.97;100.00;96363.97;5044189;28;20187;-61
2022/11/21 04:41:01;;;;;;;2.72;0.82;;;;;;;3.96;100.00;96360.50;5024506;28;20076;-61
2022/11/21 04:43:28;;;;;;;3.13;0.90;;;;;;;3.91;100.00;96373.78;5042358;28;20475;-61
2022/11/21 04:45:55;;;;;;;3.08;0.93;;;;;;;3.97;100.00;96374.69;5025633;28;20041;-61
2022/11/21 04:48:21;;;;;;;1.52;0.85;;;;;;;3.94;100.00;96359.91;5041454;28;20528;-61
2022/11/21 04:50:48;;;;;;;4.28;1.27;;;;;;;3.90;100.00;96356.88;5045181;28;20037;-61
2022/11/21 04:53:14;;;;;;;2.50;1.10;;;;;;;3.83;100.00;96364.22;5045095;28;20060;-61
2022/11/21 04:55:41;;;;;;;5.50;1.95;;;;;;;3.77;100.00;96360.59;5044996;28;20068;-61
2022/11/21 04:58:07;;;;;;;3.97;1.30;;;;;;;3.76;100.00;96366.22;5045808;28;20095;-61
2022/11/21 05:00:34;;;;;;;3.88;1.23;;;;;;;3.81;100.00;96365.50;5044262;28;20099;-61
2022/11/21 05:03:02;;;;;;;6.50;1.20;;;;;;;3.82;100.00;96359.09;5046153;28;20045;-61
2022/11/21 05:05:29;;;;;;;4.72;1.00;;;;;;;3.80;100.00;96355.84;5028870;28;20308;-61
2022/11/21 05:07:56;;;;;;;4.82;1.25;;;;;;;3.73;100.00;96354.09;5041248;28;20116;-61
2022/11/21 05:10:22;;;;;;;5.60;1.30;;;;;;;3.72;100.00;96357.81;5048672;28;20056;-61
2022/11/21 05:15:44;;;;;;;2.25;1.05;;;;;;;3.72;100.00;96365.06;5049490;28;20510;-61
2022/11/21 05:18:11;;;;;;;11.13;1.45;;;;;;;3.63;100.00;96369.91;5048556;28;20338;-61
2022/11/21 05:20:38;;;;;;;3.17;0.90;;;;;;;3.60;100.00;96355.16;5031210;28;20042;-61
2022/11/21 05:23:05;;;;;;;3.30;1.20;;;;;;;3.55;100.00;96370.25;5040966;28;20476;-61
2022/11/21 05:25:31;;;;;;;3.33;1.17;;;;;;;3.51;100.00;96361.91;5046340;28;20091;-61
2022/11/21 05:27:58;;;;;;;5.15;1.35;;;;;;;3.60;100.00;96367.69;5048572;28;20045;-61
2022/11/21 05:30:24;;;;;;;3.90;1.10;;;;;;;3.66;100.00;96380.19;5047595;28;20525;-61
2022/11/21 05:32:51;;;;;;;2.75;1.25;;;;;;;3.76;100.00;96366.22;5046747;28;20122;-61
2022/11/21 05:35:17;;;;;;;5.10;1.20;;;;;;;3.72;100.00;96363.16;5028844;28;20037;-61
2022/11/21 05:37:44;;;;;;;2.78;1.08;;;;;;;3.70;100.00;96375.16;5037668;28;20540;-62
2022/11/21 05:40:11;;;;;;;2.60;1.17;;;;;;;3.64;100.00;96375.06;5040913;28;20091;-62
2022/11/21 05:45:24;;;;;;;3.35;1.20;;;;;;;3.56;100.00;96379.91;5045588;28;20594;-62
2022/11/21 05:47:50;;;;;;;4.60;1.25;;;;;;;3.54;100.00;96377.47;5037167;28;20037;-62
2022/11/21 05:50:17;;;;;;;3.67;1.38;;;;;;;3.56;100.00;96375.38;5032489;28;20045;-62
2022/11/21 05:52:43;;;;;;;3.70;1.05;;;;;;;3.46;100.00;96383.19;5035348;28;20124;-62
2022/11/21 05:55:10;;;;;;;2.47;1.05;;;;;;;3.59;100.00;96379.47;5047914;28;20041;-62
2022/11/21 05:57:36;;;;;;;2.97;0.82;;;;;;;3.47;100.00;96377.56;5048431;28;20095;-62
2022/11/21 06:00:03;;;;;;;3.03;0.82;;;;;;;3.45;100.00;96378.84;5047291;28;20087;-62
2022/11/21 06:05:15;;;;;;;6.15;1.23;;;;;;;3.59;100.00;96382.13;5028053;28;20056;-62
2022/11/21 06:07:42;;;;;;;6.65;1.40;;;;;;;3.65;100.00;96373.19;5034448;28;20449;-62
2022/11/21 06:10:08;;;;;;;4.40;1.35;;;;;;;3.66;100.00;96368.63;5047890;28;20075;-61
2022/11/21 06:12:35;;;;;;;5.10;1.10;;;;;;;3.73;100.00;96370.16;5036757;28;20052;-59
2022/11/21 06:15:02;;;;;;;3.92;1.27;;;;;;;3.66;100.00;96374.00;5030474;28;20076;-57
2022/11/21 06:17:28;;;;;;;4.05;1.08;;;;;;;3.58;100.00;96370.59;5029940;28;20114;-59
2022/11/21 06:19:55;;;;;;;3.80;1.10;;;;;;;3.58;100.00;96378.63;5037391;28;20556;-58
2022/11/21 06:22:21;;;;;;;2.60;0.95;;;;;;;3.45;100.00;96376.19;5042411;28;20041;-59
2022/11/21 06:24:48;;;;;;;7.22;1.42;;;;;;;3.41;100.00;96380.38;5036164;28;20370;-59
2022/11/21 06:27:14;;;;;;;6.43;1.65;;;;;;;3.44;100.00;96377.22;5049485;28;20044;-58
2022/11/21 06:29:40;;;;;;;2.13;1.23;;;;;;;3.47;100.00;96371.44;5045836;28;20245;-59
2022/11/21 06:32:07;;;;;;;5.53;1.25;;;;;;;3.35;100.00;96372.22;5050269;28;20048;-60
2022/11/21 06:34:33;;;;;;;6.40;1.73;;;;;;;3.31;100.00;96362.22;5053052;28;20447;-59
2022/11/21 06:37:00;;;;;;;4.35;1.35;;;;;;;3.37;100.00;96382.69;5045249;28;20041;-59
2022/11/21 06:39:26;;;;;;;5.03;1.27;;;;;;;3.38;100.00;96373.63;5061488;28;20474;-59
2022/11/21 06:41:53;;;;;;;3.45;1.30;;;;;;;3.23;100.00;96380.22;5050326;28;20154;-57
2022/11/21 06:44:19;;;;;;;3.08;1.10;;;;;;;3.23;100.00;96377.56;5036105;28;20049;-58
2022/11/21 06:46:46;;;;;;;5.43;1.45;;;;;;;3.17;100.00;96386.47;5042052;28;20385;-59
2022/11/21 06:49:17;;;;;;;4.50;1.53;;;;;;;3.16;100.00;96387.53;5042349;28;20044;-59
2022/11/21 06:51:43;;;;;;;2.88;1.13;;;;;;;3.20;100.00;96388.69;5056021;28;20754;-58
2022/11/21 06:54:10;;;;;;;7.13;1.95;;;;;;;3.32;100.00;96383.38;5039649;28;20044;-59
2022/11/21 06:56:42;;;;;;;5.28;1.23;;;;;;;3.46;100.00;96389.34;5053868;28;20052;-60
2022/11/21 06:59:09;;;;;;;7.65;1.48;;;;;;;3.45;100.00;96393.06;5047643;28;20037;-59
2022/11/21 07:01:35;;;;;;;6.03;1.55;;;;;;;3.43;100.00;96397.03;5032773;28;20536;-59
2022/11/21 07:04:02;;;;;;;5.72;1.83;;;;;;;3.42;100.00;96392.72;5044797;28;20048;-59
2022/11/21 07:06:29;;;;;;;6.63;2.08;;;;;;;3.31;100.00;96394.34;5052034;28;20044;-59
2022/11/21 07:08:55;;;;;;;6.57;1.50;;;;;;;3.24;100.00;96397.06;5045103;28;20100;-58
2022/11/21 07:11:42;;;;;;;6.30;1.63;;;;;;;3.23;100.00;96390.94;5044615;28;20045;-59
2022/11/21 07:14:09;;;;;;;4.75;1.70;;;;;;;3.25;100.00;96393.38;5054587;28;20048;-57
2022/11/21 07:16:36;;;;;;;5.47;1.65;;;;;;;3.22;100.00;96397.34;5050186;28;20106;-58
2022/11/21 07:19:02;;;;;;;6.32;1.48;;;;;;;3.27;100.00;96393.16;5050909;28;20689;-58
2022/11/21 07:21:29;;;;;;;6.03;1.35;;;;;;;3.29;100.00;96388.38;5041785;28;20044;-57
2022/11/21 07:23:55;;;;;;;4.43;1.27;;;;;;;3.31;100.00;96391.66;5040466;28;20136;-58
2022/11/21 07:26:22;;;;;;;6.82;1.60;;;;;;;3.46;100.00;96396.56;5043463;28;20064;-59
2022/11/21 07:28:48;;;;;;;5.72;1.52;;;;;;;3.55;100.00;96400.53;5035729;28;20156;-57
2022/11/21 07:31:15;;;;;;;5.55;1.90;;;;;;;3.56;100.00;96393.31;5034557;28;20041;-58
2022/11/21 07:33:42;;;;;;;5.22;1.17;;;;;;;3.51;100.00;96392.13;5035580;28;20153;-58
2022/11/21 07:36:10;;;;;;;5.50;1.33;;;;;;;3.46;100.00;96393.91;5027814;28;20037;-58
2022/11/21 07:38:36;;;;;;;5.05;1.40;;;;;;;3.48;100.00;96397.97;5045071;28;20641;-58
2022/11/21 07:41:03;;;;;;;4.75;1.08;;;;;;;3.54;100.00;96390.84;5048207;28;20110;-59
2022/11/21 07:43:29;;;;;;;3.28;0.95;;;;;;;3.57;100.00;96392.28;5044436;28;20041;-58
2022/11/21 07:45:56;;;;;;;3.67;1.20;;;;;;;3.59;100.00;96390.16;5034027;28;20594;-59
2022/11/21 07:48:22;;;;;;;3.45;1.20;;;;;;;3.48;100.00;96397.97;5031498;28;20045;-58
2022/11/21 07:50:49;;;;;;;6.88;0.90;;;;;;;3.58;100.00;96399.25;5026135;28;20037;-58
2022/11/21 07:53:15;;;;;;;2.97;0.90;;;;;;;3.64;100.00;96387.59;5031476;28;20065;-58
2022/11/21 07:55:42;;;;;;;5.15;1.20;;;;;;;3.66;99.73;96403.44;5045281;28;20099;-59
2022/11/21 07:58:12;;;;;;;3.38;0.80;;;;;;;3.77;98.63;96403.44;5055966;28;20040;-58
2022/11/21 08:00:41;;;;;;;2.85;1.10;;;;;;;3.81;98.59;96401.13;5047474;28;20576;-59
2022/11/21 08:03:10;;;;;;;4.35;1.00;;;;;;;3.87;97.69;96394.84;5044279;28;20542;-59
2022/11/21 08:05:39;;;;;;;5.72;0.80;;;;;;;3.89;96.53;96403.47;5044629;28;20048;-60
2022/11/21 08:08:06;;;;;;;6.10;1.00;;;;;;;3.93;97.60;96395.78;5060424;28;20111;-59
2022/11/21 08:10:33;;;;;;;6.05;1.05;;;;;;;3.92;97.64;96396.81;5063606;28;20070;-58
2022/11/21 08:12:59;;;;;;;4.32;1.00;;;;;;;3.97;97.71;96402.28;5062633;28;20052;-61
2022/11/21 08:15:26;;;;;;;1.77;0.68;;;;;;;4.13;96.52;96397.28;5038928;28;20050;-60
2022/11/21 08:17:52;;;;;;;3.83;1.42;;;;;;;4.19;97.00;96400.88;5035553;28;20124;-60
2022/11/21 08:20:19;;;;;;;3.10;0.90;;;;;;;4.34;96.25;96386.97;5039011;28;20056;-60
2022/11/21 08:22:45;;;;;;;7.28;1.20;;;;;;;4.32;96.58;96389.09;5043313;28;20053;-60
2022/11/21 08:25:12;;;;;;;5.78;1.13;;;;;;;4.29;97.79;96393.06;5043698;28;20127;-60
2022/11/21 08:27:39;;;;;;;3.28;0.90;;;;;;;4.41;97.15;96393.84;5042365;28;20041;-59
2022/11/21 08:30:08;;;;;;;4.50;1.00;;;;;;;4.42;96.85;96389.28;5059979;28;20434;-60
2022/11/21 08:32:34;;;;;;;3.88;1.08;;;;;;;4.48;97.21;96388.38;5049236;28;20048;-59
2022/11/21 08:35:01;;;;;;;4.82;1.08;;;;;;;4.59;95.69;96388.56;5040487;28;20323;-60
2022/11/21 08:37:30;;;;;;;4.50;1.48;;;;;;;4.72;95.99;96388.28;5043892;28;20516;-60
2022/11/21 08:40:01;;;;;;;4.38;1.60;;;;;;;4.74;96.04;96372.78;5053554;28;20122;-59
2022/11/21 08:42:27;;;;;;;5.72;1.35;;;;;;;4.86;95.51;96379.97;5049725;28;20107;-59
2022/11/21 08:44:54;;;;;;;9.15;1.50;;;;;;;4.91;95.27;96370.13;5057927;28;20045;-59
2022/11/21 08:47:20;;;;;;;4.18;1.25;;;;;;;4.94;95.46;96368.84;5055103;28;20087;-60
2022/11/21 08:49:47;;;;;;;5.57;1.10;;;;;;;5.03;96.09;96366.59;5046413;28;20499;-60
2022/11/21 08:52:16;;;;;;;5.95;1.27;;;;;;;5.05;94.39;96372.53;5060042;28;20500;-60
2022/11/21 08:54:43;;;;;;;6.18;1.38;;;;;;;4.91;95.13;96375.50;5050049;28;20086;-59
2022/11/21 08:57:11;;;;;;;5.15;0.88;;;;;;;4.99;94.98;96374.31;5059482;28;20456;-61
2022/11/21 08:59:37;;;;;;;7.10;1.25;;;;;;;5.15;95.00;96374.56;5056478;28;20053;-60
2022/11/21 09:02:04;;;;;;;4.35;1.02;;;;;;;5.31;93.71;96373.78;5038485;28;20036;-59
2022/11/21 09:04:31;;;;;;;3.28;0.95;;;;;;;5.42;93.65;96358.66;5056692;28;20064;-60
2022/11/21 09:06:57;;;;;;;5.30;1.05;;;;;;;5.35;93.88;96368.75;5070195;28;20098;-60
2022/11/21 09:09:24;;;;;;;3.22;0.80;;;;;;;5.42;91.73;96358.66;5052206;28;20049;-59
2022/11/21 09:11:51;;;;;;;3.97;0.80;;;;;;;5.51;91.36;96350.19;5049692;28;20298;-60
2022/11/21 09:19:48;;;;;;;4.82;1.23;;;;;;;5.60;90.32;96352.22;5039331;28;20047;-60
2022/11/21 09:22:15;;;;;;;4.30;0.90;;;;;;;5.57;90.72;96350.03;5062863;28;20147;-59
2022/11/21 09:24:42;;;;;;;7.35;1.25;;;;;;;5.43;91.39;96348.75;5050112;28;20124;-60
2022/11/21 09:27:08;;;;;;;2.53;0.80;;;;;;;5.41;91.54;96346.28;5063347;28;20044;-60
2022/11/21 09:29:35;;;;;;;5.38;1.08;;;;;;;5.43;90.97;96360.31;5049874;28;20127;-60
2022/11/21 09:32:01;;;;;;;5.07;0.90;;;;;;;5.40;90.38;96359.94;5053872;28;20052;-58
2022/11/21 09:34:28;;;;;;;5.07;0.98;;;;;;;5.39;91.81;96358.34;5049631;28;20048;-58
2022/11/21 09:36:55;;;;;;;3.15;0.95;;;;;;;5.40;93.36;96350.03;5062528;28;20048;-60
2022/11/21 09:39:22;;;;;;;4.03;1.02;;;;;;;5.42;95.34;96347.91;5047594;28;20052;-60
2022/11/21 09:42:05;;;;;;;6.78;1.23;;;;;;;5.58;94.80;96343.63;5048852;28;20503;-60
2022/11/21 09:44:53;;;;;;;7.88;1.20;;;;;;;5.85;87.69;96339.41;5050324;28;20076;-60
2022/11/21 09:47:24;;;;;;;2.70;0.90;;;;;;;6.15;89.13;96340.13;5048189;28;20052;-59
2022/11/21 09:49:57;;;;;;;4.30;0.82;;;;;;;6.24;86.12;96334.03;5052560;28;20052;-60
2022/11/21 09:52:31;;;;;;;6.63;0.98;;;;;;;6.32;84.17;96324.75;5055530;28;20048;-59
2022/11/21 09:55:01;;;;;;;5.25;1.10;;;;;;;6.34;86.66;96313.75;5051629;28;20041;-60
2022/11/21 09:57:28;;;;;;;2.90;1.15;;;;;;;6.30;84.00;96310.72;5058899;28;20041;-60
2022/11/21 10:00:09;;;;;;;5.90;1.08;;;;;;;6.47;85.31;96313.38;5059064;28;20757;-60
2022/11/21 10:02:38;;;;;;;3.72;0.75;;;;;;;6.61;84.72;96308.41;5065297;28;20053;-59
2022/11/21 10:05:12;;;;;;;2.65;0.70;;;;;;;6.49;80.86;96302.38;5053770;28;20482;-60
2022/11/21 10:07:39;;;;;;;4.13;0.63;;;;;;;6.34;82.80;96305.69;5066145;28;20044;-60
2022/11/21 10:10:12;;;;;;;4.47;0.90;;;;;;;6.47;81.84;96294.53;5053229;28;20073;-61
2022/11/21 10:13:08;;;;;;;4.60;1.08;;;;;;;6.48;84.04;96290.78;5059070;28;20123;-60
2022/11/21 10:15:46;;;;;;;3.90;0.77;;;;;;;6.62;82.35;96282.31;5026082;28;20521;-60
2022/11/21 10:18:30;;;;;;;5.75;1.00;;;;;;;6.75;83.21;96283.81;5054343;28;20037;-61
2022/11/21 10:21:14;;;;;;;2.53;0.65;;;;;;;6.73;81.78;96280.53;5045105;28;20049;-61
2022/11/21 10:23:46;;;;;;;4.85;1.05;;;;;;;6.75;81.43;96273.03;5045831;28;20045;-60
2022/11/21 10:26:32;;;;;;;4.13;0.88;;;;;;;6.88;81.83;96261.84;5040753;28;20119;-60
2022/11/21 10:29:03;;;;;;;2.20;0.80;;;;;;;6.97;80.63;96270.25;5062564;28;20536;-58
2022/11/21 10:31:36;;;;;;;7.75;1.15;;;;;;;7.01;79.40;96276.75;5045475;28;20888;-58
2022/11/21 10:34:14;;;;;;;3.28;1.00;;;;;;;7.17;79.26;96266.13;5045079;28;20075;-58
2022/11/21 10:36:44;;;;;;;3.45;0.90;;;;;;;7.06;79.81;96261.72;5045840;28;20051;-59
2022/11/21 10:39:19;;;;;;;4.18;1.10;;;;;;;7.01;79.72;96252.53;5032452;28;20605;-58
2022/11/21 10:42:00;;;;;;;6.13;0.88;;;;;;;6.85;80.41;96254.28;5056724;28;20476;-59
2022/11/21 10:47:15;;;;;;;3.60;1.00;;;;;;;6.31;80.14;96249.72;5038337;28;20693;-60
2022/11/21 10:49:45;;;;;;;4.07;0.77;;;;;;;6.35;80.89;96245.47;5047511;28;20044;-59
2022/11/21 10:52:22;;;;;;;1.50;0.57;;;;;;;6.32;82.56;96238.72;5045881;28;20488;-59
2022/11/21 10:55:10;;;;;;;4.28;1.05;;;;;;;6.35;82.08;96235.50;5057542;28;20098;-58
2022/11/21 10:57:44;;;;;;;3.88;1.15;;;;;;;6.35;82.02;96234.72;5055083;28;20110;-60
2022/11/21 11:00:13;;;;;;;5.88;1.30;;;;;;;6.48;81.55;96228.09;5056305;28;20462;-59
2022/11/21 11:02:56;;;;;;;9.02;1.45;;;;;;;6.50;81.76;96218.72;5046979;28;20416;-60
2022/11/21 11:05:28;;;;;;;4.72;1.20;;;;;;;6.58;82.42;96214.78;5045517;28;20120;-57
2022/11/21 11:07:59;;;;;;;2.63;0.70;;;;;;;6.72;79.59;96209.78;5032675;28;20036;-58
2022/11/21 11:10:25;;;;;;;4.47;1.17;;;;;;;6.78;80.30;96205.25;5045099;28;20045;-59
2022/11/21 11:16:04;;;;;;;4.10;1.02;;;;;;;6.74;76.97;96185.31;5042080;28;20052;-58
2022/11/21 11:18:37;;;;;;;4.57;1.00;;;;;;;6.80;74.15;96178.91;5056878;28;20122;-58
2022/11/21 11:21:43;;;;;;;8.80;1.23;;;;;;;6.62;74.55;96188.16;5044142;28;20045;-58
2022/11/21 11:24:09;;;;;;;3.92;0.93;;;;;;;6.54;75.70;96178.69;5036263;28;20048;-59
2022/11/21 11:26:45;;;;;;;3.38;0.90;;;;;;;6.51;74.97;96165.75;5044825;28;20037;-58
2022/11/21 11:29:26;;;;;;;3.92;0.80;;;;;;;6.57;74.57;96167.44;5057177;28;20041;-59
2022/11/21 11:31:57;;;;;;;5.13;0.90;;;;;;;6.56;76.99;96159.63;5056453;28;20044;-58
2022/11/21 11:34:37;;;;;;;4.60;0.85;;;;;;;6.63;75.38;96155.63;5041094;28;20569;-58
2022/11/21 11:37:26;;;;;;;4.03;0.77;;;;;;;6.69;76.69;96145.75;5057473;28;20045;-61
2022/11/21 11:40:28;;;;;;;4.72;0.95;;;;;;;6.83;75.55;96135.34;5037051;28;20080;-59
2022/11/21 11:49:09;;;;;;;3.20;0.52;;;;;;;7.52;70.93;96127.38;5034320;28;20049;-58
2022/11/21 11:51:55;;;;;;;5.03;0.70;;;;;;;7.47;69.63;96127.34;5033453;28;20041;-58
2022/11/21 11:54:41;;;;;;;3.28;0.68;;;;;;;7.61;69.67;96108.84;5054658;28;20102;-59
2022/11/21 11:57:08;;;;;;;2.25;0.60;;;;;;;7.36;72.10;96113.03;5046207;28;20176;-58
2022/11/21 11:59:40;;;;;;;9.13;2.65;;;;;;;7.34;71.17;96112.47;5052103;28;20394;-56
2022/11/21 12:02:26;;;;;;;4.72;0.82;;;;;;;7.32;71.89;96103.88;5041393;28;20061;-58
2022/11/21 12:05:01;;;;;;;2.53;0.70;;;;;;;7.29;71.34;96109.75;5044413;28;20087;-57
2022/11/21 12:07:43;;;;;;;4.53;0.73;;;;;;;7.25;70.23;96104.09;5043864;28;20098;-58
2022/11/21 12:13:34;;;;;;;3.38;0.73;;;;;;;7.47;68.97;96086.13;5039050;28;20713;-58
2022/11/21 12:16:05;;;;;;;5.50;0.73;;;;;;;7.52;66.66;96086.97;5047940;28;20415;-57